TAF KBPT
KBPT 090533Z 0906/1006 VRB04KT P6SM BKN035 FM090800 VRB04KT 4SM BR OVC015 TEMPO 0910/0914 4SM BR BKN007 FM091600 14008KT 6SM BR BKN015 FM091800 18012G18KT P6SM BKN025 PROB30 0918/0924 4SM -SHRA BR OVC015 FM100000 18007KT P6SM BKN025=
METAR KBPT
KBPT 090653Z AUTO 11005KT 10SM OVC031 17/15 A2997 RMK AO2 SLP149 T01670150 ?
KBPT 090553Z AUTO 07005KT 10SM OVC031 16/14 A2999 RMK AO2 SLP155 T01610144 10167 20144 401780128 58011 ?
KBPT 090453Z AUTO 11004KT 10SM OVC031 15/13 A3001 RMK AO2 SLP160 T01500133 ?
KBPT 090353Z AUTO 09005KT 10SM BKN032 15/13 A3001 RMK AO2 SLP162 T01500128 ?
KBPT 090253Z 10006KT 10SM OVC033 16/13 A3002 RMK AO2 SLP166 T01610128 51006 ?
WC KBPT
WS KBPT
WV KBPT